sensor_id;sensor_type;location;lat;lon;timestamp;P1;durP1;ratioP1;P2;durP2;ratioP2
49235;SDS011;35067;48.134;8.378;2022-08-21T00:00:46;51.80;;;49.13;;
49235;SDS011;35067;48.134;8.378;2022-08-21T00:02:48;30.90;;;29.30;;
49235;SDS011;35067;48.134;8.378;2022-08-21T00:04:56;64.63;;;60.97;;
49235;SDS011;35067;48.134;8.378;2022-08-21T00:06:57;47.47;;;44.90;;
49235;SDS011;35067;48.134;8.378;2022-08-21T00:08:58;59.90;;;56.70;;
49235;SDS011;35067;48.134;8.378;2022-08-21T00:10:59;44.47;;;41.73;;
49235;SDS011;35067;48.134;8.378;2022-08-21T00:13:00;77.93;;;72.77;;
49235;SDS011;35067;48.134;8.378;2022-08-21T00:15:04;206.67;;;146.00;;
49235;SDS011;35067;48.134;8.378;2022-08-21T00:17:07;35.90;;;33.77;;
49235;SDS011;35067;48.134;8.378;2022-08-21T00:19:07;102.57;;;95.43;;
49235;SDS011;35067;48.134;8.378;2022-08-21T00:21:10;100.10;;;90.13;;
49235;SDS011;35067;48.134;8.378;2022-08-21T00:23:14;81.83;;;73.97;;
49235;SDS011;35067;48.134;8.378;2022-08-21T00:25:16;65.40;;;61.23;;
49235;SDS011;35067;48.134;8.378;2022-08-21T00:27:17;97.07;;;88.53;;
49235;SDS011;35067;48.134;8.378;2022-08-21T00:29:17;45.90;;;43.43;;
49235;SDS011;35067;48.134;8.378;2022-08-21T00:31:18;112.23;;;103.13;;
49235;SDS011;35067;48.134;8.378;2022-08-21T00:33:19;79.70;;;74.67;;
49235;SDS011;35067;48.134;8.378;2022-08-21T00:35:22;124.23;;;112.53;;
49235;SDS011;35067;48.134;8.378;2022-08-21T00:37:26;133.37;;;117.33;;
49235;SDS011;35067;48.134;8.378;2022-08-21T00:39:27;34.70;;;32.87;;
49235;SDS011;35067;48.134;8.378;2022-08-21T00:41:28;57.53;;;53.17;;
49235;SDS011;35067;48.134;8.378;2022-08-21T00:43:31;45.13;;;42.60;;
49235;SDS011;35067;48.134;8.378;2022-08-21T00:45:33;80.57;;;75.73;;
49235;SDS011;35067;48.134;8.378;2022-08-21T00:47:34;139.27;;;127.20;;
49235;SDS011;35067;48.134;8.378;2022-08-21T00:49:35;62.90;;;59.63;;
49235;SDS011;35067;48.134;8.378;2022-08-21T00:52:11;140.13;;;112.13;;
49235;SDS011;35067;48.134;8.378;2022-08-21T00:54:06;18.23;;;17.20;;
49235;SDS011;35067;48.134;8.378;2022-08-21T00:56:08;28.90;;;27.40;;
49235;SDS011;35067;48.134;8.378;2022-08-21T00:58:10;46.77;;;43.70;;
49235;SDS011;35067;48.134;8.378;2022-08-21T01:00:15;47.53;;;42.93;;
49235;SDS011;35067;48.134;8.378;2022-08-21T01:02:19;27.80;;;26.30;;
49235;SDS011;35067;48.134;8.378;2022-08-21T01:04:20;26.17;;;24.57;;
49235;SDS011;35067;48.134;8.378;2022-08-21T01:06:22;47.13;;;43.70;;
49235;SDS011;35067;48.134;8.378;2022-08-21T01:08:22;58.17;;;54.77;;
49235;SDS011;35067;48.134;8.378;2022-08-21T01:10:23;67.20;;;61.17;;
49235;SDS011;35067;48.134;8.378;2022-08-21T01:12:24;109.83;;;65.83;;
49235;SDS011;35067;48.134;8.378;2022-08-21T01:14:25;31.33;;;29.53;;
49235;SDS011;35067;48.134;8.378;2022-08-21T01:16:28;27.63;;;25.90;;
49235;SDS011;35067;48.134;8.378;2022-08-21T01:18:29;45.63;;;43.13;;
49235;SDS011;35067;48.134;8.378;2022-08-21T01:20:31;112.00;;;101.87;;
49235;SDS011;35067;48.134;8.378;2022-08-21T01:22:32;31.83;;;29.93;;
49235;SDS011;35067;48.134;8.378;2022-08-21T01:24:32;45.33;;;41.37;;
49235;SDS011;35067;48.134;8.378;2022-08-21T01:26:33;29.27;;;27.63;;
49235;SDS011;35067;48.134;8.378;2022-08-21T01:28:40;23.97;;;22.57;;
49235;SDS011;35067;48.134;8.378;2022-08-21T01:30:45;47.00;;;43.10;;
49235;SDS011;35067;48.134;8.378;2022-08-21T01:32:45;23.63;;;22.23;;
49235;SDS011;35067;48.134;8.378;2022-08-21T01:34:48;29.87;;;28.07;;
49235;SDS011;35067;48.134;8.378;2022-08-21T01:36:49;17.30;;;16.40;;
49235;SDS011;35067;48.134;8.378;2022-08-21T01:38:50;18.50;;;17.43;;
49235;SDS011;35067;48.134;8.378;2022-08-21T01:40:51;35.10;;;31.83;;
49235;SDS011;35067;48.134;8.378;2022-08-21T01:42:52;19.10;;;18.07;;
49235;SDS011;35067;48.134;8.378;2022-08-21T01:44:53;23.17;;;21.87;;
49235;SDS011;35067;48.134;8.378;2022-08-21T01:46:55;17.80;;;16.83;;
49235;SDS011;35067;48.134;8.378;2022-08-21T01:48:57;26.17;;;24.27;;
49235;SDS011;35067;48.134;8.378;2022-08-21T01:50:58;9.97;;;9.23;;
49235;SDS011;35067;48.134;8.378;2022-08-21T01:52:59;19.03;;;18.03;;
49235;SDS011;35067;48.134;8.378;2022-08-21T01:55:00;30.53;;;28.53;;
49235;SDS011;35067;48.134;8.378;2022-08-21T01:57:01;32.00;;;30.27;;
49235;SDS011;35067;48.134;8.378;2022-08-21T01:59:02;55.87;;;51.83;;
49235;SDS011;35067;48.134;8.378;2022-08-21T02:01:02;47.03;;;43.43;;
49235;SDS011;35067;48.134;8.378;2022-08-21T02:03:03;47.87;;;45.10;;
49235;SDS011;35067;48.134;8.378;2022-08-21T02:05:04;23.93;;;22.47;;
49235;SDS011;35067;48.134;8.378;2022-08-21T02:07:05;31.13;;;29.03;;
49235;SDS011;35067;48.134;8.378;2022-08-21T02:09:07;26.03;;;24.43;;
49235;SDS011;35067;48.134;8.378;2022-08-21T02:11:08;19.13;;;18.07;;
49235;SDS011;35067;48.134;8.378;2022-08-21T02:13:09;15.50;;;14.57;;
49235;SDS011;35067;48.134;8.378;2022-08-21T02:15:10;18.97;;;17.67;;
49235;SDS011;35067;48.134;8.378;2022-08-21T02:17:10;25.67;;;23.90;;
49235;SDS011;35067;48.134;8.378;2022-08-21T02:19:12;12.50;;;11.57;;
49235;SDS011;35067;48.134;8.378;2022-08-21T02:21:13;47.63;;;44.27;;
49235;SDS011;35067;48.134;8.378;2022-08-21T02:23:14;25.90;;;23.93;;
49235;SDS011;35067;48.134;8.378;2022-08-21T02:25:16;50.60;;;45.80;;
49235;SDS011;35067;48.134;8.378;2022-08-21T02:27:18;46.00;;;41.37;;
49235;SDS011;35067;48.134;8.378;2022-08-21T02:29:19;23.20;;;20.67;;
49235;SDS011;35067;48.134;8.378;2022-08-21T02:31:19;32.27;;;30.30;;
49235;SDS011;35067;48.134;8.378;2022-08-21T02:33:20;311.17;;;145.73;;
49235;SDS011;35067;48.134;8.378;2022-08-21T02:35:21;31.43;;;29.63;;
49235;SDS011;35067;48.134;8.378;2022-08-21T02:37:22;18.67;;;17.33;;
49235;SDS011;35067;48.134;8.378;2022-08-21T02:39:23;16.33;;;15.27;;
49235;SDS011;35067;48.134;8.378;2022-08-21T02:41:24;40.50;;;37.53;;
49235;SDS011;35067;48.134;8.378;2022-08-21T02:43:25;20.03;;;18.73;;
49235;SDS011;35067;48.134;8.378;2022-08-21T02:45:27;42.13;;;38.67;;
49235;SDS011;35067;48.134;8.378;2022-08-21T02:47:28;53.60;;;50.17;;
49235;SDS011;35067;48.134;8.378;2022-08-21T02:49:29;11.83;;;10.13;;
49235;SDS011;35067;48.134;8.378;2022-08-21T02:51:29;8.53;;;7.83;;
49235;SDS011;35067;48.134;8.378;2022-08-21T02:53:31;9.10;;;8.50;;
49235;SDS011;35067;48.134;8.378;2022-08-21T02:55:32;13.20;;;12.30;;
49235;SDS011;35067;48.134;8.378;2022-08-21T02:57:33;10.53;;;9.63;;
49235;SDS011;35067;48.134;8.378;2022-08-21T02:59:34;16.80;;;15.43;;
49235;SDS011;35067;48.134;8.378;2022-08-21T03:01:35;8.47;;;7.77;;
49235;SDS011;35067;48.134;8.378;2022-08-21T03:03:37;23.13;;;21.53;;
49235;SDS011;35067;48.134;8.378;2022-08-21T03:05:39;17.83;;;16.03;;
49235;SDS011;35067;48.134;8.378;2022-08-21T03:07:40;36.20;;;33.73;;
49235;SDS011;35067;48.134;8.378;2022-08-21T03:09:41;6.07;;;5.47;;
49235;SDS011;35067;48.134;8.378;2022-08-21T03:11:42;17.57;;;16.47;;
49235;SDS011;35067;48.134;8.378;2022-08-21T03:13:43;7.80;;;5.27;;
49235;SDS011;35067;48.134;8.378;2022-08-21T03:15:44;8.97;;;6.47;;
49235;SDS011;35067;48.134;8.378;2022-08-21T03:17:45;19.63;;;18.40;;
49235;SDS011;35067;48.134;8.378;2022-08-21T03:19:46;8.43;;;5.17;;
49235;SDS011;35067;48.134;8.378;2022-08-21T03:21:47;11.03;;;10.33;;
49235;SDS011;35067;48.134;8.378;2022-08-21T03:23:48;8.23;;;5.43;;
49235;SDS011;35067;48.134;8.378;2022-08-21T03:25:48;11.30;;;10.30;;
49235;SDS011;35067;48.134;8.378;2022-08-21T03:27:50;9.97;;;9.03;;
49235;SDS011;35067;48.134;8.378;2022-08-21T03:29:51;6.77;;;6.17;;
49235;SDS011;35067;48.134;8.378;2022-08-21T03:31:52;13.57;;;12.27;;
49235;SDS011;35067;48.134;8.378;2022-08-21T03:33:55;7.43;;;6.93;;
49235;SDS011;35067;48.134;8.378;2022-08-21T03:36:00;6.87;;;6.27;;
49235;SDS011;35067;48.134;8.378;2022-08-21T03:38:04;11.40;;;10.40;;
49235;SDS011;35067;48.134;8.378;2022-08-21T03:40:05;22.57;;;18.00;;
49235;SDS011;35067;48.134;8.378;2022-08-21T03:42:08;8.37;;;7.03;;
49235;SDS011;35067;48.134;8.378;2022-08-21T03:44:09;12.97;;;11.90;;
49235;SDS011;35067;48.134;8.378;2022-08-21T03:46:09;10.50;;;9.37;;
49235;SDS011;35067;48.134;8.378;2022-08-21T03:48:10;12.23;;;11.43;;
49235;SDS011;35067;48.134;8.378;2022-08-21T03:50:11;6.37;;;5.07;;
49235;SDS011;35067;48.134;8.378;2022-08-21T03:52:11;17.50;;;15.67;;
49235;SDS011;35067;48.134;8.378;2022-08-21T03:54:12;19.70;;;18.30;;
49235;SDS011;35067;48.134;8.378;2022-08-21T03:56:12;10.07;;;5.90;;
49235;SDS011;35067;48.134;8.378;2022-08-21T03:58:17;25.57;;;23.60;;
49235;SDS011;35067;48.134;8.378;2022-08-21T04:00:20;27.13;;;13.20;;
49235;SDS011;35067;48.134;8.378;2022-08-21T04:02:21;7.73;;;7.20;;
49235;SDS011;35067;48.134;8.378;2022-08-21T04:04:22;9.47;;;8.50;;
49235;SDS011;35067;48.134;8.378;2022-08-21T04:06:23;8.73;;;5.47;;
49235;SDS011;35067;48.134;8.378;2022-08-21T04:08:23;14.13;;;11.53;;
49235;SDS011;35067;48.134;8.378;2022-08-21T04:10:24;4.77;;;4.13;;
49235;SDS011;35067;48.134;8.378;2022-08-21T04:12:26;12.40;;;7.87;;
49235;SDS011;35067;48.134;8.378;2022-08-21T04:14:26;6.97;;;5.37;;
49235;SDS011;35067;48.134;8.378;2022-08-21T04:16:27;12.37;;;11.53;;
49235;SDS011;35067;48.134;8.378;2022-08-21T04:18:27;8.80;;;8.00;;
49235;SDS011;35067;48.134;8.378;2022-08-21T04:20:28;6.73;;;5.20;;
49235;SDS011;35067;48.134;8.378;2022-08-21T04:22:29;12.37;;;11.13;;
49235;SDS011;35067;48.134;8.378;2022-08-21T04:24:29;7.43;;;4.83;;
49235;SDS011;35067;48.134;8.378;2022-08-21T04:26:30;9.10;;;7.90;;
49235;SDS011;35067;48.134;8.378;2022-08-21T04:28:31;16.07;;;14.53;;
49235;SDS011;35067;48.134;8.378;2022-08-21T04:30:31;15.97;;;12.83;;
49235;SDS011;35067;48.134;8.378;2022-08-21T04:32:32;7.27;;;6.50;;
49235;SDS011;35067;48.134;8.378;2022-08-21T04:34:33;11.37;;;10.37;;
49235;SDS011;35067;48.134;8.378;2022-08-21T04:36:33;8.07;;;6.10;;
49235;SDS011;35067;48.134;8.378;2022-08-21T04:38:34;5.93;;;4.80;;
49235;SDS011;35067;48.134;8.378;2022-08-21T04:40:34;7.27;;;6.20;;
49235;SDS011;35067;48.134;8.378;2022-08-21T04:42:40;9.03;;;8.13;;
49235;SDS011;35067;48.134;8.378;2022-08-21T04:44:47;14.20;;;5.90;;
49235;SDS011;35067;48.134;8.378;2022-08-21T04:46:48;6.67;;;5.70;;
49235;SDS011;35067;48.134;8.378;2022-08-21T04:48:49;18.27;;;17.10;;
49235;SDS011;35067;48.134;8.378;2022-08-21T04:50:56;10.87;;;8.90;;
49235;SDS011;35067;48.134;8.378;2022-08-21T04:52:58;11.20;;;9.47;;
49235;SDS011;35067;48.134;8.378;2022-08-21T04:55:00;8.63;;;7.70;;
49235;SDS011;35067;48.134;8.378;2022-08-21T04:57:02;9.47;;;8.63;;
49235;SDS011;35067;48.134;8.378;2022-08-21T04:59:10;11.77;;;10.70;;
49235;SDS011;35067;48.134;8.378;2022-08-21T05:01:17;15.33;;;6.07;;
49235;SDS011;35067;48.134;8.378;2022-08-21T05:03:22;15.73;;;13.83;;
49235;SDS011;35067;48.134;8.378;2022-08-21T05:05:23;7.57;;;5.73;;
49235;SDS011;35067;48.134;8.378;2022-08-21T05:07:25;10.97;;;8.87;;
49235;SDS011;35067;48.134;8.378;2022-08-21T05:09:28;9.87;;;7.57;;
49235;SDS011;35067;48.134;8.378;2022-08-21T05:11:30;7.93;;;6.47;;
49235;SDS011;35067;48.134;8.378;2022-08-21T05:13:32;12.97;;;12.10;;
49235;SDS011;35067;48.134;8.378;2022-08-21T05:15:33;12.10;;;9.93;;
49235;SDS011;35067;48.134;8.378;2022-08-21T05:17:33;16.57;;;15.40;;
49235;SDS011;35067;48.134;8.378;2022-08-21T05:19:34;12.30;;;10.83;;
49235;SDS011;35067;48.134;8.378;2022-08-21T05:21:35;13.93;;;12.47;;
49235;SDS011;35067;48.134;8.378;2022-08-21T05:23:39;10.60;;;8.60;;
49235;SDS011;35067;48.134;8.378;2022-08-21T05:25:40;11.37;;;8.17;;
49235;SDS011;35067;48.134;8.378;2022-08-21T05:27:41;12.17;;;11.03;;
49235;SDS011;35067;48.134;8.378;2022-08-21T05:29:42;30.30;;;28.00;;
49235;SDS011;35067;48.134;8.378;2022-08-21T05:31:43;9.63;;;7.20;;
49235;SDS011;35067;48.134;8.378;2022-08-21T05:33:44;82.27;;;42.23;;
49235;SDS011;35067;48.134;8.378;2022-08-21T05:35:45;22.53;;;21.13;;
49235;SDS011;35067;48.134;8.378;2022-08-21T05:37:51;30.83;;;28.43;;
49235;SDS011;35067;48.134;8.378;2022-08-21T05:39:51;20.80;;;19.40;;
49235;SDS011;35067;48.134;8.378;2022-08-21T05:41:52;15.67;;;14.20;;
49235;SDS011;35067;48.134;8.378;2022-08-21T05:43:53;9.80;;;7.43;;
49235;SDS011;35067;48.134;8.378;2022-08-21T05:45:53;25.10;;;23.37;;
49235;SDS011;35067;48.134;8.378;2022-08-21T05:47:54;30.23;;;24.27;;
49235;SDS011;35067;48.134;8.378;2022-08-21T05:49:54;71.03;;;51.57;;
49235;SDS011;35067;48.134;8.378;2022-08-21T05:51:55;28.17;;;26.23;;
49235;SDS011;35067;48.134;8.378;2022-08-21T05:53:55;34.97;;;32.67;;
49235;SDS011;35067;48.134;8.378;2022-08-21T05:55:56;23.53;;;21.93;;
49235;SDS011;35067;48.134;8.378;2022-08-21T05:57:56;45.23;;;41.83;;
49235;SDS011;35067;48.134;8.378;2022-08-21T05:59:57;28.83;;;27.27;;
49235;SDS011;35067;48.134;8.378;2022-08-21T06:01:57;59.03;;;55.40;;
49235;SDS011;35067;48.134;8.378;2022-08-21T06:03:58;65.37;;;61.77;;
49235;SDS011;35067;48.134;8.378;2022-08-21T06:05:59;60.33;;;37.30;;
49235;SDS011;35067;48.134;8.378;2022-08-21T06:08:00;82.00;;;76.10;;
49235;SDS011;35067;48.134;8.378;2022-08-21T06:10:00;43.23;;;41.00;;
49235;SDS011;35067;48.134;8.378;2022-08-21T06:12:05;64.37;;;60.93;;
49235;SDS011;35067;48.134;8.378;2022-08-21T06:14:06;79.03;;;74.00;;
49235;SDS011;35067;48.134;8.378;2022-08-21T06:16:08;55.00;;;51.77;;
49235;SDS011;35067;48.134;8.378;2022-08-21T06:18:11;123.93;;;112.27;;
49235;SDS011;35067;48.134;8.378;2022-08-21T06:20:11;133.83;;;123.23;;
49235;SDS011;35067;48.134;8.378;2022-08-21T06:22:12;162.93;;;150.83;;
49235;SDS011;35067;48.134;8.378;2022-08-21T06:24:12;206.77;;;177.83;;
49235;SDS011;35067;48.134;8.378;2022-08-21T06:26:13;173.57;;;161.13;;
49235;SDS011;35067;48.134;8.378;2022-08-21T06:28:14;227.17;;;201.20;;
49235;SDS011;35067;48.134;8.378;2022-08-21T06:30:15;198.23;;;181.43;;
49235;SDS011;35067;48.134;8.378;2022-08-21T06:32:15;139.87;;;127.87;;
49235;SDS011;35067;48.134;8.378;2022-08-21T06:34:16;361.27;;;332.60;;
49235;SDS011;35067;48.134;8.378;2022-08-21T06:36:18;155.70;;;139.23;;
49235;SDS011;35067;48.134;8.378;2022-08-21T06:38:20;218.73;;;201.77;;
49235;SDS011;35067;48.134;8.378;2022-08-21T06:40:21;124.47;;;116.93;;
49235;SDS011;35067;48.134;8.378;2022-08-21T06:42:22;146.67;;;137.93;;
49235;SDS011;35067;48.134;8.378;2022-08-21T06:44:22;505.10;;;262.90;;
49235;SDS011;35067;48.134;8.378;2022-08-21T06:46:23;324.40;;;294.97;;
49235;SDS011;35067;48.134;8.378;2022-08-21T06:48:26;223.00;;;206.57;;
49235;SDS011;35067;48.134;8.378;2022-08-21T06:50:26;262.77;;;243.87;;
49235;SDS011;35067;48.134;8.378;2022-08-21T06:52:28;832.47;;;422.77;;
49235;SDS011;35067;48.134;8.378;2022-08-21T06:54:29;473.70;;;385.27;;
49235;SDS011;35067;48.134;8.378;2022-08-21T06:56:30;289.93;;;260.97;;
49235;SDS011;35067;48.134;8.378;2022-08-21T06:58:33;228.03;;;211.03;;
49235;SDS011;35067;48.134;8.378;2022-08-21T07:00:34;383.13;;;349.50;;
49235;SDS011;35067;48.134;8.378;2022-08-21T07:02:35;344.73;;;312.73;;
49235;SDS011;35067;48.134;8.378;2022-08-21T07:04:36;772.27;;;350.97;;
49235;SDS011;35067;48.134;8.378;2022-08-21T07:06:37;310.60;;;231.73;;
49235;SDS011;35067;48.134;8.378;2022-08-21T07:08:38;311.87;;;286.33;;
49235;SDS011;35067;48.134;8.378;2022-08-21T07:10:39;618.87;;;430.47;;
49235;SDS011;35067;48.134;8.378;2022-08-21T07:12:40;463.70;;;319.73;;
49235;SDS011;35067;48.134;8.378;2022-08-21T07:14:41;281.47;;;255.30;;
49235;SDS011;35067;48.134;8.378;2022-08-21T07:16:42;177.27;;;165.23;;
49235;SDS011;35067;48.134;8.378;2022-08-21T07:18:43;284.73;;;258.47;;
49235;SDS011;35067;48.134;8.378;2022-08-21T07:20:44;199.67;;;183.20;;
49235;SDS011;35067;48.134;8.378;2022-08-21T07:22:45;368.93;;;324.13;;
49235;SDS011;35067;48.134;8.378;2022-08-21T07:24:46;182.10;;;166.70;;
49235;SDS011;35067;48.134;8.378;2022-08-21T07:26:46;730.57;;;292.53;;
49235;SDS011;35067;48.134;8.378;2022-08-21T07:28:47;238.37;;;220.97;;
49235;SDS011;35067;48.134;8.378;2022-08-21T07:30:52;1255.97;;;256.17;;
49235;SDS011;35067;48.134;8.378;2022-08-21T07:32:56;85.63;;;78.63;;
49235;SDS011;35067;48.134;8.378;2022-08-21T07:34:57;560.67;;;305.23;;
49235;SDS011;35067;48.134;8.378;2022-08-21T07:36:57;237.33;;;209.93;;
49235;SDS011;35067;48.134;8.378;2022-08-21T07:38:58;312.00;;;287.47;;
49235;SDS011;35067;48.134;8.378;2022-08-21T07:41:00;396.90;;;361.97;;
49235;SDS011;35067;48.134;8.378;2022-08-21T07:43:01;1055.90;;;488.13;;
49235;SDS011;35067;48.134;8.378;2022-08-21T07:45:02;798.87;;;290.40;;
49235;SDS011;35067;48.134;8.378;2022-08-21T07:47:03;254.60;;;234.70;;
49235;SDS011;35067;48.134;8.378;2022-08-21T07:49:04;239.20;;;220.33;;
49235;SDS011;35067;48.134;8.378;2022-08-21T07:51:11;807.63;;;159.47;;
49235;SDS011;35067;48.134;8.378;2022-08-21T07:53:12;112.97;;;67.37;;
49235;SDS011;35067;48.134;8.378;2022-08-21T07:55:15;168.03;;;157.27;;
49235;SDS011;35067;48.134;8.378;2022-08-21T07:57:17;778.87;;;212.40;;
49235;SDS011;35067;48.134;8.378;2022-08-21T07:59:18;1473.73;;;433.77;;
49235;SDS011;35067;48.134;8.378;2022-08-21T08:01:19;511.70;;;237.97;;
49235;SDS011;35067;48.134;8.378;2022-08-21T08:03:19;1124.13;;;377.23;;
49235;SDS011;35067;48.134;8.378;2022-08-21T08:05:24;198.67;;;82.90;;
49235;SDS011;35067;48.134;8.378;2022-08-21T08:07:27;290.80;;;96.23;;
49235;SDS011;35067;48.134;8.378;2022-08-21T08:09:27;419.93;;;150.77;;
49235;SDS011;35067;48.134;8.378;2022-08-21T08:11:28;373.50;;;275.83;;
49235;SDS011;35067;48.134;8.378;2022-08-21T08:13:29;230.57;;;108.50;;
49235;SDS011;35067;48.134;8.378;2022-08-21T08:15:29;381.13;;;279.23;;
49235;SDS011;35067;48.134;8.378;2022-08-21T08:17:30;1081.57;;;480.27;;
49235;SDS011;35067;48.134;8.378;2022-08-21T08:19:32;327.90;;;83.97;;
49235;SDS011;35067;48.134;8.378;2022-08-21T08:21:32;98.53;;;66.67;;
49235;SDS011;35067;48.134;8.378;2022-08-21T08:23:34;1009.07;;;346.80;;
49235;SDS011;35067;48.134;8.378;2022-08-21T08:25:35;159.70;;;143.43;;
49235;SDS011;35067;48.134;8.378;2022-08-21T08:27:36;62.03;;;48.27;;
49235;SDS011;35067;48.134;8.378;2022-08-21T08:29:37;887.50;;;347.83;;
49235;SDS011;35067;48.134;8.378;2022-08-21T08:31:38;211.03;;;108.53;;
49235;SDS011;35067;48.134;8.378;2022-08-21T08:33:39;768.70;;;181.13;;
49235;SDS011;35067;48.134;8.378;2022-08-21T08:35:40;187.17;;;126.50;;
49235;SDS011;35067;48.134;8.378;2022-08-21T08:37:45;99.80;;;46.17;;
49235;SDS011;35067;48.134;8.378;2022-08-21T08:39:45;479.07;;;326.97;;
49235;SDS011;35067;48.134;8.378;2022-08-21T08:41:47;133.57;;;51.30;;
49235;SDS011;35067;48.134;8.378;2022-08-21T08:43:55;101.17;;;37.87;;
49235;SDS011;35067;48.134;8.378;2022-08-21T08:46:03;138.60;;;76.50;;
49235;SDS011;35067;48.134;8.378;2022-08-21T08:48:13;82.87;;;77.07;;
49235;SDS011;35067;48.134;8.378;2022-08-21T08:50:40;35.53;;;33.20;;
49235;SDS011;35067;48.134;8.378;2022-08-21T08:52:47;26.80;;;25.17;;
49235;SDS011;35067;48.134;8.378;2022-08-21T08:55:05;52.73;;;48.97;;
49235;SDS011;35067;48.134;8.378;2022-08-21T08:57:17;18.23;;;13.57;;
49235;SDS011;35067;48.134;8.378;2022-08-21T08:59:22;607.23;;;123.43;;
49235;SDS011;35067;48.134;8.378;2022-08-21T09:01:28;196.40;;;104.77;;
49235;SDS011;35067;48.134;8.378;2022-08-21T09:03:28;305.23;;;120.20;;
49235;SDS011;35067;48.134;8.378;2022-08-21T09:05:36;105.57;;;83.63;;
49235;SDS011;35067;48.134;8.378;2022-08-21T09:11:07;332.63;;;100.67;;
49235;SDS011;35067;48.134;8.378;2022-08-21T09:12:59;67.17;;;63.17;;
49235;SDS011;35067;48.134;8.378;2022-08-21T09:15:36;1187.17;;;409.40;;
49235;SDS011;35067;48.134;8.378;2022-08-21T09:28:00;42.83;;;38.73;;
49235;SDS011;35067;48.134;8.378;2022-08-21T09:30:01;38.00;;;36.03;;
49235;SDS011;35067;48.134;8.378;2022-08-21T09:32:08;372.07;;;270.03;;
49235;SDS011;35067;48.134;8.378;2022-08-21T09:34:29;222.40;;;203.43;;
49235;SDS011;35067;48.134;8.378;2022-08-21T09:36:37;426.80;;;382.63;;
49235;SDS011;35067;48.134;8.378;2022-08-21T09:38:51;44.17;;;39.83;;
49235;SDS011;35067;48.134;8.378;2022-08-21T09:40:58;39.53;;;36.17;;
49235;SDS011;35067;48.134;8.378;2022-08-21T09:45:17;67.80;;;62.17;;
49235;SDS011;35067;48.134;8.378;2022-08-21T09:47:18;103.53;;;97.00;;
49235;SDS011;35067;48.134;8.378;2022-08-21T09:49:30;334.23;;;95.13;;
49235;SDS011;35067;48.134;8.378;2022-08-21T09:51:35;37.57;;;33.67;;
49235;SDS011;35067;48.134;8.378;2022-08-21T09:53:38;25.63;;;24.23;;
49235;SDS011;35067;48.134;8.378;2022-08-21T09:55:52;298.33;;;108.33;;
49235;SDS011;35067;48.134;8.378;2022-08-21T09:58:18;111.77;;;45.27;;
49235;SDS011;35067;48.134;8.378;2022-08-21T10:00:28;20.07;;;18.13;;
49235;SDS011;35067;48.134;8.378;2022-08-21T10:02:32;10.37;;;9.67;;
49235;SDS011;35067;48.134;8.378;2022-08-21T10:04:35;23.57;;;21.30;;
49235;SDS011;35067;48.134;8.378;2022-08-21T10:06:37;169.60;;;67.63;;
49235;SDS011;35067;48.134;8.378;2022-08-21T10:08:38;142.13;;;69.20;;
49235;SDS011;35067;48.134;8.378;2022-08-21T10:10:40;370.90;;;119.63;;
49235;SDS011;35067;48.134;8.378;2022-08-21T10:15:04;463.43;;;183.97;;
49235;SDS011;35067;48.134;8.378;2022-08-21T10:17:27;57.17;;;31.40;;
49235;SDS011;35067;48.134;8.378;2022-08-21T10:19:48;277.07;;;79.37;;
49235;SDS011;35067;48.134;8.378;2022-08-21T10:22:26;703.33;;;189.63;;
49235;SDS011;35067;48.134;8.378;2022-08-21T10:24:58;80.07;;;47.80;;
49235;SDS011;35067;48.134;8.378;2022-08-21T10:29:52;1584.17;;;422.90;;
49235;SDS011;35067;48.134;8.378;2022-08-21T10:36:46;525.17;;;160.60;;
49235;SDS011;35067;48.134;8.378;2022-08-21T10:43:52;371.10;;;215.77;;
49235;SDS011;35067;48.134;8.378;2022-08-21T10:54:45;221.53;;;199.67;;
49235;SDS011;35067;48.134;8.378;2022-08-21T10:56:58;196.00;;;180.32;;
49235;SDS011;35067;48.134;8.378;2022-08-21T10:59:15;645.47;;;234.13;;
49235;SDS011;35067;48.134;8.378;2022-08-21T11:01:32;988.38;;;289.35;;
49235;SDS011;35067;48.134;8.378;2022-08-21T11:03:42;1999.90;;;627.38;;
49235;SDS011;35067;48.134;8.378;2022-08-21T11:06:11;1307.22;;;632.15;;
49235;SDS011;35067;48.134;8.378;2022-08-21T11:08:26;959.25;;;574.10;;
49235;SDS011;35067;48.134;8.378;2022-08-21T11:10:46;1582.95;;;583.20;;
49235;SDS011;35067;48.134;8.378;2022-08-21T11:12:54;1787.80;;;949.92;;
49235;SDS011;35067;48.134;8.378;2022-08-21T11:15:11;1999.90;;;894.92;;
49235;SDS011;35067;48.134;8.378;2022-08-21T11:17:34;1999.90;;;944.17;;
49235;SDS011;35067;48.134;8.378;2022-08-21T11:19:48;1999.90;;;999.90;;
49235;SDS011;35067;48.134;8.378;2022-08-21T11:22:00;1999.90;;;945.58;;
49235;SDS011;35067;48.134;8.378;2022-08-21T11:24:30;1999.90;;;999.90;;
49235;SDS011;35067;48.134;8.378;2022-08-21T11:26:54;1920.05;;;609.13;;
49235;SDS011;35067;48.134;8.378;2022-08-21T11:29:33;1673.70;;;573.85;;
49235;SDS011;35067;48.134;8.378;2022-08-21T11:31:41;1522.78;;;560.28;;
49235;SDS011;35067;48.134;8.378;2022-08-21T11:36:02;1999.90;;;795.75;;
49235;SDS011;35067;48.134;8.378;2022-08-21T11:38:42;1810.93;;;881.17;;
49235;SDS011;35067;48.134;8.378;2022-08-21T11:50:29;1917.82;;;762.47;;
49235;SDS011;35067;48.134;8.378;2022-08-21T11:52:36;1606.57;;;740.42;;
49235;SDS011;35067;48.134;8.378;2022-08-21T11:56:53;1999.90;;;804.10;;
49235;SDS011;35067;48.134;8.378;2022-08-21T11:59:29;1879.05;;;886.90;;
49235;SDS011;35067;48.134;8.378;2022-08-21T12:01:41;1999.90;;;877.42;;
49235;SDS011;35067;48.134;8.378;2022-08-21T12:03:53;1999.90;;;999.90;;
49235;SDS011;35067;48.134;8.378;2022-08-21T12:06:27;1999.90;;;999.15;;
49235;SDS011;35067;48.134;8.378;2022-08-21T12:08:35;1999.90;;;997.97;;
49235;SDS011;35067;48.134;8.378;2022-08-21T12:10:47;1999.90;;;999.90;;
49235;SDS011;35067;48.134;8.378;2022-08-21T12:13:11;1999.90;;;999.90;;
49235;SDS011;35067;48.134;8.378;2022-08-21T12:15:26;1999.90;;;999.90;;
49235;SDS011;35067;48.134;8.378;2022-08-21T12:17:34;1999.90;;;999.90;;
49235;SDS011;35067;48.134;8.378;2022-08-21T12:19:38;1999.90;;;999.90;;
49235;SDS011;35067;48.134;8.378;2022-08-21T12:21:50;1999.90;;;999.90;;
49235;SDS011;35067;48.134;8.378;2022-08-21T12:26:19;1999.90;;;999.90;;
49235;SDS011;35067;48.134;8.378;2022-08-21T12:28:23;1999.90;;;999.90;;
49235;SDS011;35067;48.134;8.378;2022-08-21T12:32:30;1999.90;;;999.90;;
49235;SDS011;35067;48.134;8.378;2022-08-21T12:35:00;1999.90;;;903.40;;
49235;SDS011;35067;48.134;8.378;2022-08-21T12:37:21;1999.90;;;999.90;;
49235;SDS011;35067;48.134;8.378;2022-08-21T12:39:48;1999.90;;;999.90;;
49235;SDS011;35067;48.134;8.378;2022-08-21T12:44:09;1999.90;;;985.45;;
49235;SDS011;35067;48.134;8.378;2022-08-21T12:46:17;1757.18;;;874.72;;
49235;SDS011;35067;48.134;8.378;2022-08-21T12:50:50;1276.53;;;468.40;;
49235;SDS011;35067;48.134;8.378;2022-08-21T12:53:02;1233.63;;;523.03;;
49235;SDS011;35067;48.134;8.378;2022-08-21T12:55:13;1999.90;;;773.67;;
49235;SDS011;35067;48.134;8.378;2022-08-21T12:57:21;1999.90;;;998.92;;
49235;SDS011;35067;48.134;8.378;2022-08-21T12:59:24;1999.90;;;999.90;;
49235;SDS011;35067;48.134;8.378;2022-08-21T13:01:27;1999.90;;;999.90;;
49235;SDS011;35067;48.134;8.378;2022-08-21T13:03:34;1999.90;;;975.63;;